Aérodrome :
LOGIN :

S'inscrire | Disclaimer

   EN    FR    IT 

 










Légende :    VFR   VFR Marginal   IFR   IFR Intensif   IFR Très Intensif
Visi : 
Plafond : 
>= 8 km
>= 3000ft
5 à 8 km
1000 à 3000 ft
1500m à 5 km
500 à 1000 ft
800 à 1500m
200 à 500 ft
< 800m
< 200 ft
Symboles :   Orages  Brouillard  Fortes neiges  Fortes précipitations  Vent > 20 kt
SIGMETs :   Divers  Orages  Givrage  Turbulence  Onde Orograph.  Cendres Volcan.







- Altitude de l'aérodrome : 17 ft
- Code IATA : DND
- Voir les cartes d'approche


EGPN - Dundee

DERNIER METAR :
  • 191650Z 26007KT 9999 SCT038 07/05 Q1010

METARs EXPIRÉS :
  • 191620Z 26008KT 9999 FEW038 07/05 Q1010
  • 191550Z 26007KT 9999 FEW034 07/05 Q1010
  • 191520Z 26009KT 9999 FEW034 08/05 Q1010
  • 191450Z 25010KT 9999 FEW034 08/05 Q1010
  • 191420Z 25012KT 9999 FEW022 SCT034 08/05 Q1010

TAF TAF EGPN
Valide du 19 à 15h jusqu'au 19 à 21h UTC


191400Z 1915/1921 24010KT 9999 FEW018 SCT035
PROB30
TEMPO 1915/1918 BKN014
BECMG 1918/1921 16008KT BKN010
TEMPO 1918/1921 7000 -RA
PROB40
TEMPO 1919/1921 4000 RADZ BKN008
Pas de NOTAMs connus pour ce terrain.



MET'MAP, la Météo Aéronautique d'un coup d'oeil ! - Copyright ORBIFLY Décembre 2007 - Disclaimer

ORBIFLY MET'MAP TEAM :

Programmation & Développement : Alexandra Zaïnal
Conception & Développement : Baudouin d'Aumeries
Co-Programmation & Développement : Marc-Olivier Méhu
Soutien technique & logistique : Manuel Goepfert

Contact : metmap@orbifly.com




SOURCES & CREDITS :

   NOAA